createdAt,value
2018-01-22T00:00:13.722Z,2.44
2018-01-22T00:02:40.507Z,2.45
2018-01-22T00:05:07.243Z,2.62
2018-01-22T00:07:33.946Z,2.62
2018-01-22T00:10:00.658Z,2.54
2018-01-22T00:12:27.350Z,2.54
2018-01-22T00:14:54.787Z,2.68
2018-01-22T00:17:21.457Z,2.68
2018-01-22T00:19:48.941Z,2.62
2018-01-22T00:22:15.617Z,2.68
2018-01-22T00:24:42.345Z,2.68
2018-01-22T00:27:10.656Z,2.57
2018-01-22T00:29:37.389Z,2.61
2018-01-22T00:32:04.042Z,2.61
2018-01-22T00:34:30.857Z,2.59
2018-01-22T00:36:58.598Z,2.41
2018-01-22T00:39:25.294Z,2.38
2018-01-22T00:41:52.128Z,2.40
2018-01-22T00:44:18.843Z,2.33
2018-01-22T00:46:45.530Z,2.21
2018-01-22T00:49:13.765Z,2.10
2018-01-22T00:51:40.532Z,2.01
2018-01-22T00:54:07.194Z,2.05
2018-01-22T00:56:33.982Z,1.93
2018-01-22T00:59:01.419Z,1.81
2018-01-22T01:01:28.085Z,1.66
2018-01-22T01:03:55.547Z,1.53
2018-01-22T01:06:22.975Z,1.41
2018-01-22T01:08:49.661Z,1.39
2018-01-22T01:11:16.386Z,1.31
2018-01-22T01:13:43.801Z,1.22
2018-01-22T01:16:10.502Z,1.13
2018-01-22T01:18:37.281Z,1.05
2018-01-22T01:21:03.941Z,1.06
2018-01-22T01:23:30.647Z,0.94
2018-01-22T01:25:57.357Z,0.87
2018-01-22T01:28:24.787Z,0.83
2018-01-22T01:30:51.478Z,0.85
2018-01-22T01:33:18.175Z,0.74
2018-01-22T01:35:44.864Z,0.74
2018-01-22T01:38:11.531Z,0.57
2018-01-22T01:40:38.250Z,0.58
2018-01-22T01:43:04.910Z,0.55
2018-01-22T01:45:31.616Z,0.62
2018-01-22T01:47:58.304Z,0.51
2018-01-22T01:50:24.975Z,0.54
2018-01-22T01:52:51.650Z,0.38
2018-01-22T01:55:20.206Z,0.23
2018-01-22T01:57:47.027Z,0.45
2018-01-22T02:00:13.752Z,0.42
2018-01-22T02:02:40.475Z,0.52
2018-01-22T02:05:07.893Z,0.52
2018-01-22T02:07:34.562Z,0.54
2018-01-22T02:10:01.331Z,0.52
2018-01-22T02:12:28.770Z,0.43
2018-01-22T02:14:55.461Z,0.20
2018-01-22T02:17:22.145Z,0.20
2018-01-22T02:19:48.835Z,0.22
2018-01-22T02:22:15.595Z,0.14
2018-01-22T02:24:42.347Z,-0.03
2018-01-22T02:27:09.017Z,-0.23
2018-01-22T02:29:35.698Z,-0.24
2018-01-22T02:32:02.410Z,-0.18
2018-01-22T02:34:29.097Z,-0.20
2018-01-22T02:36:55.774Z,-0.37
2018-01-22T02:39:22.471Z,-0.47
2018-01-22T02:41:49.134Z,-0.51
2018-01-22T02:44:15.810Z,-0.60
2018-01-22T02:46:42.502Z,-0.65
2018-01-22T02:49:09.205Z,-0.57
2018-01-22T02:51:35.876Z,-0.45
2018-01-22T02:54:03.329Z,-0.41
2018-01-22T02:56:30.773Z,-0.40
2018-01-22T02:58:57.449Z,-0.36
2018-01-22T03:01:24.914Z,-0.27
2018-01-22T03:03:51.601Z,-0.43
2018-01-22T03:06:18.294Z,-0.57
2018-01-22T03:08:45.730Z,-0.64
2018-01-22T03:11:12.404Z,-0.66
2018-01-22T03:13:40.211Z,-0.69
2018-01-22T03:16:07.053Z,-0.64
2018-01-22T03:18:35.803Z,-0.66
2018-01-22T03:21:10.276Z,-0.69
2018-01-22T03:23:37.087Z,-0.67
2018-01-22T03:26:03.779Z,-0.44
2018-01-22T03:28:30.699Z,-0.31
2018-01-22T03:30:57.436Z,-0.35
2018-01-22T03:33:25.176Z,-0.41
2018-01-22T03:35:52.659Z,-0.48
2018-01-22T03:38:19.344Z,-0.39
2018-01-22T03:40:46.018Z,-0.28
2018-01-22T03:43:13.474Z,-0.19
2018-01-22T03:45:40.880Z,-0.05
2018-01-22T03:48:07.585Z,0.04
2018-01-22T03:50:35.094Z,0.06
2018-01-22T03:53:01.903Z,0.11
2018-01-22T03:55:29.683Z,0.19
2018-01-22T03:57:56.396Z,0.27
2018-01-22T04:00:23.820Z,0.15
2018-01-22T04:02:50.486Z,0.14
2018-01-22T04:05:17.211Z,0.16
2018-01-22T04:07:43.869Z,0.13
2018-01-22T04:10:10.585Z,0.13
2018-01-22T04:12:37.306Z,0.09
2018-01-22T04:15:03.985Z,0.10
2018-01-22T04:17:30.704Z,0.12
2018-01-22T04:19:57.395Z,0.13
2018-01-22T04:22:24.099Z,0.13
2018-01-22T04:24:50.807Z,0.16
2018-01-22T04:27:17.533Z,0.23
2018-01-22T04:29:44.992Z,0.19
2018-01-22T04:32:12.461Z,0.18
2018-01-22T04:34:39.915Z,0.18
2018-01-22T04:37:07.296Z,0.28
2018-01-22T04:39:33.966Z,0.40
2018-01-22T04:42:00.646Z,0.33
2018-01-22T04:44:27.308Z,0.29
2018-01-22T04:46:54.718Z,0.30
2018-01-22T04:49:22.325Z,0.41
2018-01-22T04:51:49.846Z,0.59
2018-01-22T04:54:16.502Z,0.68
2018-01-22T04:56:43.195Z,0.72
2018-01-22T04:59:09.854Z,0.68
2018-01-22T05:01:36.514Z,0.60
2018-01-22T05:04:03.267Z,0.59
2018-01-22T05:06:29.918Z,0.79
2018-01-22T05:08:56.603Z,0.79
2018-01-22T05:11:29.225Z,0.69
2018-01-22T05:13:55.932Z,0.62
2018-01-22T05:16:22.684Z,0.60
2018-01-22T05:18:49.462Z,0.64
2018-01-22T05:21:16.155Z,0.86
2018-01-22T05:23:43.597Z,0.79
2018-01-22T05:26:10.403Z,0.57
2018-01-22T05:28:37.117Z,0.44
2018-01-22T05:31:03.873Z,0.47
2018-01-22T05:33:30.661Z,0.46
2018-01-22T05:35:57.377Z,0.35
2018-01-22T05:38:24.103Z,0.37
2018-01-22T05:40:50.900Z,0.43
2018-01-22T05:43:17.590Z,0.47
2018-01-22T05:45:44.302Z,0.42
2018-01-22T05:48:25.673Z,0.44
2018-01-22T05:50:52.487Z,0.43
2018-01-22T05:53:19.187Z,0.41
2018-01-22T05:55:47.833Z,0.45
2018-01-22T05:58:14.728Z,0.47
2018-01-22T06:00:41.534Z,0.56
2018-01-22T06:03:08.382Z,0.48
2018-01-22T06:05:36.120Z,0.51
2018-01-22T06:08:03.890Z,0.44
2018-01-22T06:10:30.657Z,0.34
2018-01-22T06:12:58.406Z,0.37
2018-01-22T06:15:31.110Z,0.40
2018-01-22T06:17:57.836Z,0.42
2018-01-22T06:20:24.560Z,0.39
2018-01-22T06:22:51.263Z,0.29
2018-01-22T06:25:17.945Z,0.38
2018-01-22T06:27:44.641Z,0.37
2018-01-22T06:30:18.329Z,0.42
2018-01-22T06:32:53.787Z,0.30
2018-01-22T06:35:20.515Z,0.43
2018-01-22T06:37:47.227Z,0.51
2018-01-22T06:40:13.909Z,0.55
2018-01-22T06:42:40.604Z,0.64
2018-01-22T06:45:08.039Z,0.56
2018-01-22T06:47:34.714Z,0.53
2018-01-22T06:50:01.366Z,0.54
2018-01-22T06:52:28.017Z,0.66
2018-01-22T06:54:54.735Z,0.64
2018-01-22T06:57:22.147Z,0.67
2018-01-22T06:59:48.816Z,0.70
2018-01-22T07:02:15.538Z,0.75
2018-01-22T07:04:42.262Z,0.76
2018-01-22T07:07:08.910Z,0.80
2018-01-22T07:09:35.562Z,0.82
2018-01-22T07:12:02.229Z,0.89
2018-01-22T07:14:28.896Z,0.95
2018-01-22T07:16:57.255Z,1.04
2018-01-22T07:19:24.274Z,1.03
2018-01-22T07:21:56.646Z,1.06
2018-01-22T07:24:23.379Z,1.09
2018-01-22T07:26:50.143Z,0.93
2018-01-22T07:29:16.798Z,0.95
2018-01-22T07:31:43.488Z,0.96
2018-01-22T07:34:10.224Z,0.85
2018-01-22T07:36:37.656Z,0.74
2018-01-22T07:39:04.419Z,0.80
2018-01-22T07:41:31.925Z,0.91
2018-01-22T07:43:58.594Z,0.96
2018-01-22T07:46:25.251Z,1.06
2018-01-22T07:48:51.993Z,1.07
2018-01-22T07:51:18.678Z,1.15
2018-01-22T07:53:45.363Z,1.23
2018-01-22T07:56:12.081Z,1.43
2018-01-22T07:58:38.759Z,1.43
2018-01-22T08:01:05.442Z,1.37
2018-01-22T08:03:32.191Z,1.60
2018-01-22T08:05:59.598Z,1.71
2018-01-22T08:08:26.307Z,1.73
2018-01-22T08:10:53.015Z,2.04
2018-01-22T08:13:20.401Z,1.88
2018-01-22T08:15:47.122Z,2.29
2018-01-22T08:18:14.654Z,2.53
2018-01-22T08:20:41.345Z,2.59
2018-01-22T08:23:08.046Z,2.85
2018-01-22T08:25:34.805Z,3.19
2018-01-22T08:28:02.264Z,3.28
2018-01-22T08:30:30.037Z,3.64
2018-01-22T08:32:58.363Z,4.01
2018-01-22T08:35:25.090Z,4.33
2018-01-22T08:37:51.777Z,4.85
2018-01-22T08:40:18.472Z,5.05
2018-01-22T08:42:45.178Z,5.08
2018-01-22T08:45:11.849Z,5.56
2018-01-22T08:47:38.557Z,5.37
2018-01-22T08:50:05.226Z,5.67
2018-01-22T08:52:32.687Z,5.43
2018-01-22T08:55:00.171Z,5.29
2018-01-22T08:57:26.912Z,4.83
2018-01-22T08:59:53.638Z,5.40
2018-01-22T09:02:21.092Z,5.50
2018-01-22T09:04:48.529Z,5.57
2018-01-22T09:07:15.207Z,5.86
2018-01-22T09:09:41.995Z,5.56
2018-01-22T09:12:09.709Z,5.69
2018-01-22T09:14:37.148Z,5.13
2018-01-22T09:17:03.978Z,6.27
2018-01-22T09:19:30.699Z,7.28
2018-01-22T09:21:57.388Z,6.75
2018-01-22T09:24:24.122Z,7.42
2018-01-22T09:26:50.986Z,7.00
2018-01-22T09:29:17.723Z,6.72
2018-01-22T09:31:44.442Z,7.81
2018-01-22T09:34:11.119Z,8.56
2018-01-22T09:36:38.587Z,8.50
2018-01-22T09:39:06.070Z,8.71
2018-01-22T09:41:32.775Z,8.91
2018-01-22T09:43:59.436Z,9.58
2018-01-22T09:46:26.915Z,9.02
2018-01-22T09:48:53.684Z,9.44
2018-01-22T09:51:20.356Z,10.50
2018-01-22T09:53:47.063Z,10.75
2018-01-22T09:56:13.718Z,7.68
2018-01-22T09:58:40.422Z,8.17
2018-01-22T10:01:07.864Z,7.30
2018-01-22T10:03:34.568Z,7.21
2018-01-22T10:06:02.030Z,6.59
2018-01-22T10:08:28.758Z,8.31
2018-01-22T10:10:55.457Z,9.63
2018-01-22T10:13:23.862Z,11.35
2018-01-22T10:15:53.364Z,12.46
2018-01-22T10:18:21.663Z,14.63
2018-01-22T10:20:49.985Z,14.21
2018-01-22T10:23:16.722Z,12.39
2018-01-22T10:25:43.389Z,11.81
2018-01-22T10:28:10.804Z,11.75
2018-01-22T10:30:37.520Z,11.18
2018-01-22T10:33:11.862Z,11.44
2018-01-22T10:35:38.578Z,10.97
2018-01-22T10:38:06.016Z,12.33
2018-01-22T10:40:32.725Z,11.85
2018-01-22T10:42:59.455Z,11.86
2018-01-22T10:45:27.789Z,12.79
2018-01-22T10:47:54.464Z,12.77
2018-01-22T10:50:21.984Z,15.36
2018-01-22T10:52:50.293Z,15.35
2018-01-22T10:55:18.662Z,15.43
2018-01-22T10:57:47.007Z,15.30
2018-01-22T11:00:13.716Z,14.58
2018-01-22T11:02:40.456Z,14.57
2018-01-22T11:05:08.874Z,16.65
2018-01-22T11:07:37.173Z,17.27
2018-01-22T11:10:05.468Z,16.65
2018-01-22T11:12:32.148Z,17.08
2018-01-22T11:14:59.595Z,18.09
2018-01-22T11:17:27.022Z,18.01
2018-01-22T11:19:53.756Z,14.93
2018-01-22T11:22:20.438Z,15.64
2018-01-22T11:24:47.938Z,16.86
2018-01-22T11:27:14.629Z,17.59
2018-01-22T11:29:41.400Z,18.09
2018-01-22T11:32:08.836Z,17.84
2018-01-22T11:34:35.553Z,17.61
2018-01-22T11:37:02.238Z,14.99
2018-01-22T11:39:29.662Z,16.74
2018-01-22T11:41:56.354Z,17.12
2018-01-22T11:44:23.767Z,18.98
2018-01-22T11:46:50.495Z,16.80
2018-01-22T11:49:17.259Z,18.37
2018-01-22T11:51:43.903Z,15.70
2018-01-22T11:54:10.573Z,16.20
2018-01-22T11:56:38.059Z,14.68
2018-01-22T11:59:06.378Z,13.67
2018-01-22T12:01:33.855Z,15.06
2018-01-22T12:04:00.530Z,16.09
2018-01-22T12:06:28.046Z,16.41
2018-01-22T12:08:54.772Z,17.59
2018-01-22T12:11:21.516Z,17.07
2018-01-22T12:13:49.147Z,15.87
2018-01-22T12:16:16.584Z,15.96
2018-01-22T12:18:43.401Z,14.80
2018-01-22T12:21:11.734Z,13.64
2018-01-22T12:23:39.147Z,13.54
2018-01-22T12:26:05.853Z,12.80
2018-01-22T12:28:34.187Z,11.98
2018-01-22T12:31:02.636Z,10.53
2018-01-22T12:33:29.815Z,9.51
2018-01-22T12:35:56.517Z,7.54
2018-01-22T12:38:23.214Z,8.48
2018-01-22T12:40:49.936Z,7.44
2018-01-22T12:43:16.641Z,7.95
2018-01-22T12:45:43.349Z,7.83
2018-01-22T12:48:10.129Z,7.73
2018-01-22T12:50:37.894Z,7.50
2018-01-22T12:53:04.640Z,6.96
2018-01-22T12:55:31.366Z,6.76
2018-01-22T12:57:58.838Z,6.95
2018-01-22T13:00:25.535Z,7.13
2018-01-22T13:02:52.283Z,6.79
2018-01-22T13:05:18.942Z,7.01
2018-01-22T13:07:46.790Z,6.81
2018-01-22T13:10:13.543Z,7.05
2018-01-22T13:12:43.601Z,6.59
2018-01-22T13:15:11.046Z,7.28
2018-01-22T13:17:38.515Z,6.79
2018-01-22T13:20:05.972Z,6.47
2018-01-22T13:22:33.469Z,6.28
2018-01-22T13:25:00.277Z,6.43
2018-01-22T13:27:27.725Z,6.24
2018-01-22T13:29:55.223Z,6.21
2018-01-22T13:32:21.993Z,6.42
2018-01-22T13:34:48.759Z,6.25
2018-01-22T13:37:15.452Z,6.55
2018-01-22T13:39:42.165Z,6.56
2018-01-22T13:42:08.912Z,6.12
2018-01-22T13:44:35.654Z,5.93
2018-01-22T13:47:02.393Z,5.83
2018-01-22T13:49:29.086Z,5.79
2018-01-22T13:51:59.877Z,5.62
2018-01-22T13:54:26.712Z,5.56
2018-01-22T13:56:53.402Z,5.51
2018-01-22T13:59:20.084Z,5.86
2018-01-22T14:01:46.800Z,6.15
2018-01-22T14:04:13.530Z,6.08
2018-01-22T14:06:40.205Z,5.37
2018-01-22T14:09:06.893Z,5.60
2018-01-22T14:11:33.574Z,5.72
2018-01-22T14:14:01.191Z,5.26
2018-01-22T14:16:27.905Z,5.42
2018-01-22T14:18:54.587Z,5.55
2018-01-22T14:21:21.304Z,5.47
2018-01-22T14:23:47.993Z,5.52
2018-01-22T14:26:17.534Z,5.57
2018-01-22T14:28:44.217Z,5.36
2018-01-22T14:31:12.054Z,5.17
2018-01-22T14:33:38.722Z,4.85
2018-01-22T14:36:05.445Z,5.02
2018-01-22T14:38:32.204Z,4.97
2018-01-22T14:40:58.998Z,5.10
2018-01-22T14:43:25.708Z,5.33
2018-01-22T14:45:52.437Z,5.27
2018-01-22T14:48:19.150Z,4.87
2018-01-22T14:50:45.888Z,4.70
2018-01-22T14:53:12.602Z,4.91
2018-01-22T14:55:40.003Z,4.68
2018-01-22T14:58:06.677Z,4.54
2018-01-22T15:00:33.395Z,4.33
2018-01-22T15:03:00.118Z,4.04
2018-01-22T15:05:26.878Z,4.11
2018-01-22T15:07:53.616Z,4.29
2018-01-22T15:10:20.329Z,4.18
2018-01-22T15:12:47.749Z,4.14
2018-01-22T15:15:14.489Z,4.37
2018-01-22T15:17:41.163Z,4.37
2018-01-22T15:20:08.748Z,4.34
2018-01-22T15:22:35.501Z,4.43
2018-01-22T15:25:02.285Z,4.46
2018-01-22T15:27:29.010Z,4.42
2018-01-22T15:29:55.801Z,4.51
2018-01-22T15:32:23.300Z,4.27
2018-01-22T15:34:51.098Z,4.35
2018-01-22T15:37:17.818Z,4.23
2018-01-22T15:39:44.498Z,4.34
2018-01-22T15:42:11.173Z,4.43
2018-01-22T15:44:38.628Z,4.48
2018-01-22T15:47:06.057Z,4.52
2018-01-22T15:49:32.739Z,4.55
2018-01-22T15:52:00.197Z,4.51
2018-01-22T15:54:27.595Z,4.29
2018-01-22T15:56:54.283Z,4.29
2018-01-22T15:59:21.023Z,4.13
2018-01-22T16:01:47.817Z,4.26
2018-01-22T16:04:14.521Z,4.25
2018-01-22T16:06:41.291Z,4.22
2018-01-22T16:09:08.784Z,4.11
2018-01-22T16:11:35.473Z,4.15
2018-01-22T16:14:02.205Z,4.14
2018-01-22T16:16:28.894Z,4.11
2018-01-22T16:18:55.634Z,4.19
2018-01-22T16:21:23.095Z,4.24
2018-01-22T16:23:49.810Z,4.17
2018-01-22T16:26:16.521Z,4.18
2018-01-22T16:28:43.254Z,4.15
2018-01-22T16:31:10.002Z,4.11
2018-01-22T16:33:36.745Z,4.09
2018-01-22T16:36:05.112Z,4.15
2018-01-22T16:38:33.496Z,4.04
2018-01-22T16:41:02.960Z,3.96
2018-01-22T16:43:31.317Z,3.98
2018-01-22T16:45:59.653Z,3.91
2018-01-22T16:48:27.981Z,3.89
2018-01-22T16:50:56.471Z,3.85
2018-01-22T16:53:24.927Z,3.75
2018-01-22T16:55:53.322Z,3.81
2018-01-22T16:58:21.709Z,3.75
2018-01-22T17:00:50.164Z,3.80
2018-01-22T17:03:30.797Z,3.78
2018-01-22T17:06:01.699Z,3.61
2018-01-22T17:08:28.419Z,3.65
2018-01-22T17:10:55.195Z,3.65
2018-01-22T17:13:27.167Z,3.61
2018-01-22T17:15:55.790Z,3.57
2018-01-22T17:18:23.292Z,3.58
2018-01-22T17:20:50.103Z,3.62
2018-01-22T17:23:17.696Z,3.56
2018-01-22T17:25:44.378Z,3.65
2018-01-22T17:28:11.108Z,3.58
2018-01-22T17:30:38.952Z,3.56
2018-01-22T17:33:05.757Z,3.63
2018-01-22T17:35:32.448Z,3.57
2018-01-22T17:37:59.197Z,3.62
2018-01-22T17:40:26.049Z,3.63
2018-01-22T17:42:55.050Z,3.62
2018-01-22T17:45:23.886Z,3.62
2018-01-22T17:47:50.617Z,3.61
2018-01-22T17:50:17.325Z,3.69
2018-01-22T17:52:44.034Z,3.67
2018-01-22T17:55:11.485Z,3.61
2018-01-22T17:57:40.020Z,3.57
2018-01-22T18:00:06.782Z,3.68
2018-01-22T18:02:34.525Z,3.67
2018-01-22T18:05:01.208Z,3.69
2018-01-22T18:07:27.916Z,3.56
2018-01-22T18:09:54.615Z,3.57
2018-01-22T18:12:23.195Z,3.60
2018-01-22T18:14:49.923Z,3.52
2018-01-22T18:17:16.816Z,3.36
2018-01-22T18:19:44.195Z,3.28
2018-01-22T18:22:12.003Z,3.19
2018-01-22T18:24:39.872Z,3.31
2018-01-22T18:27:07.432Z,3.17
2018-01-22T18:29:47.750Z,3.11
2018-01-22T18:32:14.486Z,3.03
2018-01-22T18:34:41.204Z,3.01
2018-01-22T18:37:08.655Z,3.11
2018-01-22T18:39:38.672Z,3.09
2018-01-22T18:42:05.458Z,3.10
2018-01-22T18:44:32.197Z,3.17
2018-01-22T18:46:58.956Z,3.22
2018-01-22T18:49:25.647Z,3.18
2018-01-22T18:51:52.366Z,3.17
2018-01-22T18:54:22.930Z,3.19
2018-01-22T18:56:49.693Z,3.17
2018-01-22T18:59:17.138Z,3.29
2018-01-22T19:01:43.829Z,3.29
2018-01-22T19:04:10.585Z,3.23
2018-01-22T19:06:37.400Z,3.13
2018-01-22T19:09:11.365Z,3.18
2018-01-22T19:11:38.275Z,3.22
2018-01-22T19:14:05.137Z,3.13
2018-01-22T19:16:32.872Z,3.04
2018-01-22T19:19:04.502Z,2.95
2018-01-22T19:21:31.286Z,2.93
2018-01-22T19:24:00.138Z,2.80
2018-01-22T19:26:26.879Z,2.72
2018-01-22T19:28:54.112Z,2.61
2018-01-22T19:31:20.860Z,2.54
2018-01-22T19:33:47.571Z,2.39
2018-01-22T19:36:14.269Z,2.28
2018-01-22T19:38:41.058Z,2.28
2018-01-22T19:41:08.022Z,2.23
2018-01-22T19:43:35.291Z,2.25
2018-01-22T19:46:02.196Z,2.15
2018-01-22T19:48:29.690Z,2.13
2018-01-22T19:50:56.418Z,2.08
2018-01-22T19:53:23.305Z,2.16
2018-01-22T19:55:50.028Z,2.31
2018-01-22T19:58:16.798Z,2.32
2018-01-22T20:00:43.800Z,2.35
2018-01-22T20:03:11.192Z,2.42
2018-01-22T20:05:37.968Z,2.45
2018-01-22T20:08:04.818Z,2.52
2018-01-22T20:10:31.523Z,2.54
2018-01-22T20:12:58.268Z,2.55
2018-01-22T20:15:24.955Z,2.57
2018-01-22T20:17:52.691Z,2.63
2018-01-22T20:20:19.364Z,2.63
2018-01-22T20:22:46.092Z,2.65
2018-01-22T20:25:13.038Z,2.61
2018-01-22T20:27:39.787Z,2.63
2018-01-22T20:30:06.604Z,2.71
2018-01-22T20:32:33.320Z,2.66
2018-01-22T20:35:00.050Z,2.63
2018-01-22T20:37:27.537Z,2.56
2018-01-22T20:39:54.295Z,2.54
2018-01-22T20:42:21.042Z,2.45
2018-01-22T20:44:47.766Z,2.36
2018-01-22T20:47:14.547Z,2.37
2018-01-22T20:49:41.510Z,2.38
2018-01-22T20:52:08.277Z,2.38
2018-01-22T20:54:35.713Z,2.49
2018-01-22T20:57:06.103Z,2.58
2018-01-22T20:59:32.905Z,2.52
2018-01-22T21:02:00.451Z,2.50
2018-01-22T21:04:27.188Z,2.49
2018-01-22T21:06:53.919Z,2.47
2018-01-22T21:09:20.619Z,2.55
2018-01-22T21:11:51.471Z,2.54
2018-01-22T21:14:28.814Z,2.51
2018-01-22T21:16:55.674Z,2.50
2018-01-22T21:19:22.384Z,2.48
2018-01-22T21:21:49.087Z,2.53
2018-01-22T21:24:16.529Z,2.45
2018-01-22T21:26:43.230Z,2.40
2018-01-22T21:29:09.990Z,2.39
2018-01-22T21:31:36.717Z,2.42
2018-01-22T21:34:03.545Z,2.45
2018-01-22T21:36:43.251Z,2.45
2018-01-22T21:39:15.225Z,2.47
2018-01-22T21:41:43.994Z,2.48
2018-01-22T21:44:10.809Z,2.47
2018-01-22T21:46:37.530Z,2.50
2018-01-22T21:49:04.247Z,2.66
2018-01-22T21:51:41.434Z,2.60
2018-01-22T21:54:15.121Z,2.62
2018-01-22T21:56:45.890Z,2.65
2018-01-22T21:59:13.378Z,2.62
2018-01-22T22:01:40.210Z,2.64
2018-01-22T22:04:07.638Z,2.60
2018-01-22T22:06:43.209Z,2.56
2018-01-22T22:09:10.654Z,2.58
2018-01-22T22:11:43.854Z,2.56
2018-01-22T22:14:12.404Z,2.56
2018-01-22T22:16:40.708Z,2.59
2018-01-22T22:19:07.524Z,2.58
2018-01-22T22:21:34.224Z,2.58
2018-01-22T22:24:01.714Z,2.60
2018-01-22T22:26:28.462Z,2.60
2018-01-22T22:29:05.658Z,2.61
2018-01-22T22:31:32.368Z,2.64
2018-01-22T22:34:03.802Z,2.68
2018-01-22T22:36:37.989Z,2.68
2018-01-22T22:39:15.598Z,2.78
2018-01-22T22:41:42.342Z,2.57
2018-01-22T22:44:09.048Z,2.41
2018-01-22T22:46:35.767Z,2.48
2018-01-22T22:49:05.406Z,2.45
2018-01-22T22:51:39.534Z,2.46
2018-01-22T22:54:06.242Z,2.48
2018-01-22T22:56:33.659Z,2.48
2018-01-22T22:59:00.369Z,2.50
2018-01-22T23:01:27.153Z,2.53
2018-01-22T23:03:53.881Z,2.52
2018-01-22T23:06:20.579Z,2.52
2018-01-22T23:08:54.663Z,2.52
2018-01-22T23:11:22.122Z,2.54
2018-01-22T23:13:48.785Z,2.55
2018-01-22T23:16:15.513Z,2.53
2018-01-22T23:18:42.197Z,2.69
2018-01-22T23:21:33.573Z,2.55
2018-01-22T23:24:00.299Z,2.56
2018-01-22T23:26:29.114Z,2.56
2018-01-22T23:29:03.932Z,2.57
2018-01-22T23:31:30.659Z,2.63
2018-01-22T23:33:57.338Z,2.65
2018-01-22T23:36:24.175Z,2.63
2018-01-22T23:38:50.846Z,2.66
2018-01-22T23:41:17.558Z,2.70
2018-01-22T23:43:44.265Z,2.70
2018-01-22T23:46:10.928Z,2.75
2018-01-22T23:48:37.600Z,2.75
2018-01-22T23:51:04.350Z,2.78
2018-01-22T23:53:31.035Z,2.72
2018-01-22T23:55:57.725Z,2.68
2018-01-22T23:58:24.426Z,2.64
